Willetsville, Ohio
Current Conditions -  °F | °C
As of 8:54 AM on Thursday 30 Oct 2014 (Local Time) from KILN Reporting Station
Overcast Overcast  
Wind Chill: 39°   Ceiling: 4100
Heat Index: 42°   Visibility: 10mi
Dew Point: 35°   Wind: 5mph
Humidity: 76%   Direction: 360°N
Pressure: 30.15"   Gusts: NA
Location:  39.1546°N, 83.569°W
Report Text: KILN 301254Z AUTO 36004KT 10SM OVC041 06/02 A3015 RMK AO2 SLP227 T00560017
Loading
Personal Weather Stations






























Interactive Weather Map
Tropical Storm Tracking
New forecast layout! Learn more

10-Day Weather Forecast

Advertisements
Track Severe Weather on mobile